createdAt,value
2019-02-02T00:00:35.324Z,29.02
2019-02-02T00:03:05.043Z,29.10
2019-02-02T00:05:34.634Z,28.52
2019-02-02T00:08:03.896Z,28.62
2019-02-02T00:10:32.669Z,28.80
2019-02-02T00:13:01.409Z,31.52
2019-02-02T00:15:30.248Z,28.97
2019-02-02T00:17:59.073Z,29.95
2019-02-02T00:20:27.837Z,28.65
2019-02-02T00:22:56.665Z,28.73
2019-02-02T00:25:25.428Z,28.05
2019-02-02T00:27:54.243Z,28.27
2019-02-02T00:30:23.003Z,28.17
2019-02-02T00:32:51.738Z,28.40
2019-02-02T00:35:20.541Z,32.73
2019-02-02T00:37:49.273Z,28.95
2019-02-02T00:40:19.508Z,29.35
2019-02-02T00:42:48.236Z,30.63
2019-02-02T00:45:21.222Z,29.80
2019-02-02T00:47:50.265Z,28.50
2019-02-02T00:50:19.330Z,28.75
2019-02-02T00:52:49.379Z,25.97
2019-02-02T00:55:19.336Z,29.60
2019-02-02T00:57:53.655Z,29.15
2019-02-02T01:00:20.405Z,28.23
2019-02-02T01:02:49.237Z,28.25
2019-02-02T01:05:19.486Z,29.52
2019-02-02T01:07:48.706Z,29.65
2019-02-02T01:10:32.653Z,29.32
2019-02-02T01:13:01.540Z,30.80
2019-02-02T01:15:30.569Z,28.45
2019-02-02T01:17:59.349Z,25.52
2019-02-02T01:20:28.178Z,28.60
2019-02-02T01:22:56.940Z,27.98
2019-02-02T01:25:25.672Z,26.00
2019-02-02T01:28:04.998Z,29.63
2019-02-02T01:30:26.321Z,27.93
2019-02-02T01:32:55.096Z,29.37
2019-02-02T01:35:23.838Z,27.05
2019-02-02T01:37:52.652Z,28.90
2019-02-02T01:40:26.625Z,26.65
2019-02-02T01:42:55.967Z,26.67
2019-02-02T01:45:28.913Z,29.77
2019-02-02T01:47:58.581Z,28.80
2019-02-02T01:50:28.684Z,28.77
2019-02-02T01:52:57.772Z,27.50
2019-02-02T01:55:26.737Z,28.12
2019-02-02T01:57:55.555Z,27.75
2019-02-02T02:00:32.401Z,29.10
2019-02-02T02:03:01.241Z,31.00
2019-02-02T02:05:30.273Z,27.42
2019-02-02T02:07:59.513Z,30.77
2019-02-02T02:10:28.273Z,28.38
2019-02-02T02:12:57.006Z,29.77
2019-02-02T02:15:25.808Z,29.57
2019-02-02T02:17:54.541Z,28.45
2019-02-02T02:20:24.361Z,27.52
2019-02-02T02:22:53.320Z,30.12
2019-02-02T02:25:22.354Z,29.05
2019-02-02T02:27:52.004Z,28.92
2019-02-02T02:30:22.581Z,29.00
2019-02-02T02:32:52.070Z,29.87
2019-02-02T02:35:21.005Z,28.62
2019-02-02T02:37:49.973Z,28.52
2019-02-02T02:40:20.640Z,27.70
2019-02-02T02:42:49.603Z,28.25
2019-02-02T02:45:18.345Z,27.73
2019-02-02T02:47:47.409Z,29.07
2019-02-02T02:50:18.143Z,27.52
2019-02-02T02:52:46.941Z,26.52
2019-02-02T02:55:16.881Z,29.77
2019-02-02T02:57:45.821Z,29.12
2019-02-02T03:00:17.221Z,30.15
2019-02-02T03:02:46.048Z,28.40
2019-02-02T03:05:15.393Z,28.95
2019-02-02T03:07:44.691Z,30.02
2019-02-02T03:10:15.919Z,30.90
2019-02-02T03:12:44.753Z,27.50
2019-02-02T03:15:15.769Z,28.87
2019-02-02T03:17:44.716Z,28.98
2019-02-02T03:20:15.317Z,27.90
2019-02-02T03:22:44.349Z,30.65
2019-02-02T03:25:15.658Z,28.50
2019-02-02T03:27:44.608Z,27.70
2019-02-02T03:30:15.654Z,28.23
2019-02-02T03:32:44.528Z,29.40
2019-02-02T03:35:15.585Z,27.22
2019-02-02T03:37:44.331Z,30.32
2019-02-02T03:40:18.348Z,27.40
2019-02-02T03:42:47.082Z,27.65
2019-02-02T03:45:20.872Z,27.87
2019-02-02T03:47:50.504Z,28.47
2019-02-02T03:50:19.368Z,28.87
2019-02-02T03:52:48.128Z,30.20
2019-02-02T03:55:16.988Z,30.25
2019-02-02T03:57:45.726Z,29.63
2019-02-02T04:00:16.697Z,27.40
2019-02-02T04:02:46.074Z,30.55
2019-02-02T04:05:17.337Z,28.57
2019-02-02T04:07:46.074Z,28.98
2019-02-02T04:10:15.419Z,29.50
2019-02-02T04:12:44.184Z,30.65
2019-02-02T04:15:17.341Z,28.77
2019-02-02T04:17:46.108Z,32.15
2019-02-02T04:20:17.144Z,30.97
2019-02-02T04:22:46.089Z,29.30
2019-02-02T04:25:15.220Z,28.92
2019-02-02T04:27:43.989Z,29.90
2019-02-02T04:30:15.797Z,30.75
2019-02-02T04:32:44.652Z,31.95
2019-02-02T04:35:13.378Z,29.35
2019-02-02T04:37:42.141Z,28.07
2019-02-02T04:40:15.345Z,30.17
2019-02-02T04:42:44.121Z,29.63
2019-02-02T04:45:15.547Z,29.55
2019-02-02T04:47:44.509Z,29.10
2019-02-02T04:50:18.589Z,32.53
2019-02-02T04:52:47.354Z,29.80
2019-02-02T04:55:18.034Z,32.10
2019-02-02T04:57:47.067Z,29.37
2019-02-02T05:00:18.896Z,27.70
2019-02-02T05:02:47.632Z,26.02
2019-02-02T05:05:17.693Z,28.03
2019-02-02T05:07:46.479Z,28.12
2019-02-02T05:10:20.590Z,26.33
2019-02-02T05:12:49.516Z,30.82
2019-02-02T05:15:18.381Z,28.23
2019-02-02T05:17:47.119Z,27.85
2019-02-02T05:20:18.125Z,29.18
2019-02-02T05:22:46.816Z,27.35
2019-02-02T05:25:15.720Z,26.65
2019-02-02T05:27:44.561Z,26.40
2019-02-02T05:30:21.554Z,25.43
2019-02-02T05:32:50.291Z,25.62
2019-02-02T05:35:19.130Z,26.27
2019-02-02T05:37:47.901Z,24.20
2019-02-02T05:40:18.707Z,25.65
2019-02-02T05:42:47.566Z,27.40
2019-02-02T05:45:18.905Z,25.27
2019-02-02T05:47:48.249Z,26.12
2019-02-02T05:50:19.069Z,23.40
2019-02-02T05:52:47.917Z,22.50
2019-02-02T05:55:18.552Z,20.97
2019-02-02T05:57:47.359Z,19.80
2019-02-02T06:00:20.430Z,24.02
2019-02-02T06:02:49.269Z,22.37
2019-02-02T06:05:18.065Z,24.98
2019-02-02T06:07:46.833Z,20.85
2019-02-02T06:10:17.754Z,23.60
2019-02-02T06:12:46.512Z,25.02
2019-02-02T06:15:16.175Z,23.23
2019-02-02T06:17:44.916Z,23.42
2019-02-02T06:20:16.909Z,22.85
2019-02-02T06:22:45.680Z,21.65
2019-02-02T06:25:17.605Z,24.32
2019-02-02T06:27:46.533Z,22.48
2019-02-02T06:30:23.367Z,23.98
2019-02-02T06:32:52.136Z,23.05
2019-02-02T06:35:21.090Z,24.63
2019-02-02T06:37:52.885Z,21.20
2019-02-02T06:40:21.602Z,20.80
2019-02-02T06:42:50.345Z,21.93
2019-02-02T06:45:22.284Z,22.52
2019-02-02T06:47:51.041Z,19.45
2019-02-02T06:50:19.809Z,21.07
2019-02-02T06:52:48.544Z,19.70
2019-02-02T06:55:17.720Z,21.12
2019-02-02T06:57:46.448Z,20.10
2019-02-02T07:00:18.005Z,21.25
2019-02-02T07:02:47.647Z,21.27
2019-02-02T07:05:16.491Z,21.10
2019-02-02T07:07:45.608Z,23.40
2019-02-02T07:10:19.687Z,21.85
2019-02-02T07:12:50.535Z,22.77
2019-02-02T07:15:21.870Z,22.80
2019-02-02T07:17:51.208Z,20.97
2019-02-02T07:20:19.972Z,21.68
2019-02-02T07:22:48.708Z,20.68
2019-02-02T07:25:17.979Z,20.63
2019-02-02T07:27:46.737Z,23.47
2019-02-02T07:30:28.287Z,21.52
2019-02-02T07:32:48.731Z,19.92
2019-02-02T07:35:17.805Z,21.12
2019-02-02T07:37:46.981Z,20.43
2019-02-02T07:40:17.944Z,22.35
2019-02-02T07:42:47.051Z,19.98
2019-02-02T07:45:21.384Z,19.57
2019-02-02T07:47:52.600Z,21.27
2019-02-02T07:50:21.473Z,20.57
2019-02-02T07:52:50.737Z,19.73
2019-02-02T07:55:21.269Z,21.15
2019-02-02T07:57:50.217Z,20.72
2019-02-02T08:00:24.665Z,21.52
2019-02-02T08:02:53.965Z,22.27
2019-02-02T08:05:23.141Z,22.58
2019-02-02T08:07:52.004Z,20.37
2019-02-02T08:10:20.901Z,19.70
2019-02-02T08:12:50.135Z,20.85
2019-02-02T08:15:21.658Z,20.35
2019-02-02T08:17:50.489Z,20.88
2019-02-02T08:20:19.223Z,23.65
2019-02-02T08:22:47.997Z,23.15
2019-02-02T08:25:20.973Z,21.57
2019-02-02T08:27:49.969Z,21.90
2019-02-02T08:30:21.375Z,22.05
2019-02-02T08:32:50.267Z,21.57
2019-02-02T08:35:19.369Z,22.02
2019-02-02T08:37:48.764Z,22.48
2019-02-02T08:40:19.533Z,23.75
2019-02-02T08:42:48.489Z,23.60
2019-02-02T08:45:18.796Z,23.70
2019-02-02T08:47:49.065Z,23.30
2019-02-02T08:50:20.790Z,22.75
2019-02-02T08:52:49.533Z,25.23
2019-02-02T08:55:18.427Z,22.13
2019-02-02T08:57:48.969Z,23.80
2019-02-02T09:00:19.805Z,23.40
2019-02-02T09:02:48.677Z,20.97
2019-02-02T09:05:21.837Z,22.25
2019-02-02T09:07:53.637Z,23.35
2019-02-02T09:10:27.540Z,22.90
2019-02-02T09:12:57.090Z,20.43
2019-02-02T09:15:26.242Z,20.37
2019-02-02T09:17:55.072Z,20.55
2019-02-02T09:20:23.848Z,20.05
2019-02-02T09:23:03.995Z,19.83
2019-02-02T09:25:22.993Z,19.53
2019-02-02T09:28:11.115Z,20.12
2019-02-02T09:30:40.997Z,19.33
2019-02-02T09:33:09.741Z,18.07
2019-02-02T09:35:38.602Z,20.35
2019-02-02T09:38:07.368Z,19.27
2019-02-02T09:40:36.124Z,18.62
2019-02-02T09:43:04.908Z,18.92
2019-02-02T09:45:35.004Z,18.12
2019-02-02T09:48:03.769Z,18.40
2019-02-02T09:50:32.500Z,17.73
2019-02-02T09:53:01.272Z,16.37
2019-02-02T09:55:30.080Z,16.20
2019-02-02T09:58:04.589Z,15.75
2019-02-02T10:00:33.988Z,14.90
2019-02-02T10:03:02.739Z,16.17
2019-02-02T10:05:32.107Z,15.20
2019-02-02T10:08:01.060Z,14.68
2019-02-02T10:10:32.008Z,15.23
2019-02-02T10:13:00.846Z,14.73
2019-02-02T10:15:29.608Z,14.00
2019-02-02T10:17:58.341Z,14.47
2019-02-02T10:20:29.016Z,12.47
2019-02-02T10:22:59.325Z,11.78
2019-02-02T10:25:29.706Z,13.00
2019-02-02T10:27:58.629Z,13.45
2019-02-02T10:30:32.368Z,11.55
2019-02-02T10:33:01.088Z,11.53
2019-02-02T10:35:29.853Z,11.43
2019-02-02T10:37:58.587Z,12.15
2019-02-02T10:40:29.933Z,11.83
2019-02-02T10:42:57.855Z,10.57
2019-02-02T10:45:26.592Z,10.98
2019-02-02T10:47:55.552Z,12.47
2019-02-02T10:50:26.060Z,10.33
2019-02-02T10:52:54.853Z,11.18
2019-02-02T10:55:25.302Z,9.73
2019-02-02T10:57:54.113Z,9.85
2019-02-02T11:00:31.554Z,10.23
2019-02-02T11:03:00.321Z,9.53
2019-02-02T11:05:29.073Z,9.40
2019-02-02T11:07:58.193Z,8.98
2019-02-02T11:10:34.952Z,9.50
2019-02-02T11:13:03.823Z,8.65
2019-02-02T11:15:32.692Z,7.15
2019-02-02T11:18:01.700Z,7.37
2019-02-02T11:20:32.650Z,8.08
2019-02-02T11:23:01.357Z,8.43
2019-02-02T11:25:30.371Z,8.08
2019-02-02T11:27:59.282Z,8.00
2019-02-02T11:30:29.299Z,8.03
2019-02-02T11:32:57.996Z,8.60
2019-02-02T11:35:26.769Z,8.00
2019-02-02T11:37:55.501Z,7.90
2019-02-02T11:40:34.828Z,8.03
2019-02-02T11:43:04.230Z,7.40
2019-02-02T11:45:33.086Z,7.10
2019-02-02T11:48:01.815Z,7.40
2019-02-02T11:50:30.593Z,7.25
2019-02-02T11:52:59.318Z,6.78
2019-02-02T11:55:29.158Z,6.50
2019-02-02T11:57:57.881Z,6.87
2019-02-02T12:00:38.736Z,5.65
2019-02-02T12:03:07.666Z,5.42
2019-02-02T12:05:36.531Z,6.75
2019-02-02T12:08:05.867Z,6.10
2019-02-02T12:10:35.702Z,5.62
2019-02-02T12:13:05.085Z,6.12
2019-02-02T12:15:33.854Z,6.28
2019-02-02T12:18:02.704Z,5.70
2019-02-02T12:20:33.404Z,5.90
2019-02-02T12:23:01.904Z,5.78
2019-02-02T12:25:30.750Z,5.80
2019-02-02T12:27:59.510Z,5.83
2019-02-02T12:30:30.845Z,5.87
2019-02-02T12:33:03.391Z,5.30
2019-02-02T12:35:40.576Z,6.05
2019-02-02T12:38:09.437Z,5.70
2019-02-02T12:40:38.160Z,5.90
2019-02-02T12:43:06.934Z,5.47
2019-02-02T12:45:44.793Z,5.70
2019-02-02T12:48:13.658Z,5.33
2019-02-02T12:50:42.493Z,5.28
2019-02-02T12:53:11.253Z,6.05
2019-02-02T12:55:39.976Z,5.17
2019-02-02T12:58:08.827Z,5.70
2019-02-02T13:00:37.553Z,5.55
2019-02-02T13:03:06.713Z,5.83
2019-02-02T13:05:35.449Z,5.33
2019-02-02T13:08:05.356Z,6.37
2019-02-02T13:10:34.633Z,6.05
2019-02-02T13:13:03.396Z,5.35
2019-02-02T13:15:32.117Z,5.58
2019-02-02T13:18:00.957Z,5.90
2019-02-02T13:20:29.717Z,6.10
2019-02-02T13:22:58.446Z,5.72
2019-02-02T13:25:27.710Z,6.08
2019-02-02T13:27:56.533Z,5.30
2019-02-02T13:30:46.416Z,5.22
2019-02-02T13:33:15.181Z,4.85
2019-02-02T13:35:45.524Z,5.50
2019-02-02T13:38:14.221Z,5.30
2019-02-02T13:40:43.061Z,5.55
2019-02-02T13:43:11.859Z,5.35
2019-02-02T13:45:40.624Z,5.10
2019-02-02T13:48:09.396Z,4.87
2019-02-02T13:50:38.246Z,5.10
2019-02-02T13:53:07.478Z,4.90
2019-02-02T13:55:36.234Z,4.97
2019-02-02T13:58:05.333Z,5.45
2019-02-02T14:00:34.913Z,4.95
2019-02-02T14:03:04.182Z,4.80
2019-02-02T14:05:33.053Z,4.62
2019-02-02T14:08:01.881Z,4.58
2019-02-02T14:10:32.933Z,4.80
2019-02-02T14:13:01.684Z,5.12
2019-02-02T14:15:30.520Z,4.60
2019-02-02T14:18:01.056Z,4.08
2019-02-02T14:20:29.973Z,4.75
2019-02-02T14:23:17.940Z,5.00
2019-02-02T14:25:46.697Z,4.10
2019-02-02T14:28:27.613Z,4.28
2019-02-02T14:30:47.639Z,4.30
2019-02-02T14:33:16.481Z,5.65
2019-02-02T14:35:45.424Z,4.58
2019-02-02T14:38:14.395Z,4.70
2019-02-02T14:40:43.318Z,4.35
2019-02-02T14:43:12.148Z,4.30
2019-02-02T14:45:40.949Z,5.10
2019-02-02T14:48:09.725Z,4.78
2019-02-02T14:50:40.138Z,4.37
2019-02-02T14:53:10.433Z,4.60
2019-02-02T14:55:39.841Z,4.28
2019-02-02T14:58:08.806Z,4.57
2019-02-02T15:00:37.544Z,4.28
2019-02-02T15:03:06.533Z,4.33
2019-02-02T15:05:42.451Z,4.78
2019-02-02T15:08:05.736Z,4.77
2019-02-02T15:10:34.560Z,4.45
2019-02-02T15:13:03.360Z,4.58
2019-02-02T15:15:32.230Z,5.10
2019-02-02T15:18:00.962Z,5.75
2019-02-02T15:20:36.657Z,5.03
2019-02-02T15:23:06.095Z,4.97
2019-02-02T15:25:34.952Z,5.22
2019-02-02T15:28:03.717Z,6.50
2019-02-02T15:30:34.740Z,6.17
2019-02-02T15:33:03.678Z,5.80
2019-02-02T15:35:32.441Z,5.10
2019-02-02T15:38:01.237Z,5.78
2019-02-02T15:40:31.590Z,5.92
2019-02-02T15:43:00.529Z,7.42
2019-02-02T15:45:31.306Z,8.20
2019-02-02T15:48:00.303Z,9.08
2019-02-02T15:50:29.256Z,9.57
2019-02-02T15:52:58.062Z,8.73
2019-02-02T15:55:26.829Z,9.53
2019-02-02T15:57:55.549Z,10.68
2019-02-02T16:00:26.452Z,10.15
2019-02-02T16:02:55.177Z,10.30
2019-02-02T16:05:24.411Z,9.75
2019-02-02T16:07:53.273Z,10.78
2019-02-02T16:10:33.029Z,11.15
2019-02-02T16:13:02.005Z,11.12
2019-02-02T16:15:33.931Z,11.95
2019-02-02T16:18:01.261Z,11.40
2019-02-02T16:20:32.699Z,11.03
2019-02-02T16:23:01.457Z,11.10
2019-02-02T16:25:30.194Z,11.40
2019-02-02T16:27:59.025Z,12.10
2019-02-02T16:30:31.203Z,11.48
2019-02-02T16:33:00.062Z,11.40
2019-02-02T16:35:28.797Z,11.10
2019-02-02T16:37:57.556Z,11.67
2019-02-02T16:40:30.412Z,11.35
2019-02-02T16:42:59.490Z,11.38
2019-02-02T16:45:33.361Z,10.80
2019-02-02T16:48:02.129Z,11.18
2019-02-02T16:50:30.894Z,11.87
2019-02-02T16:52:59.743Z,11.28
2019-02-02T16:55:28.615Z,11.10
2019-02-02T16:57:57.496Z,13.53
2019-02-02T17:00:31.273Z,15.03
2019-02-02T17:03:00.284Z,15.00
2019-02-02T17:05:29.345Z,13.20
2019-02-02T17:07:58.166Z,12.68
2019-02-02T17:10:32.005Z,12.07
2019-02-02T17:13:00.737Z,12.00
2019-02-02T17:15:29.545Z,12.28
2019-02-02T17:17:58.273Z,14.00
2019-02-02T17:20:32.717Z,14.30
2019-02-02T17:23:01.498Z,14.50
2019-02-02T17:25:30.331Z,14.50
2019-02-02T17:27:59.094Z,14.10
2019-02-02T17:30:27.824Z,14.73
2019-02-02T17:33:01.951Z,14.87
2019-02-02T17:35:30.745Z,15.80
2019-02-02T17:37:59.567Z,14.70
2019-02-02T17:40:29.630Z,15.90
2019-02-02T17:42:59.898Z,15.23
2019-02-02T17:45:28.757Z,15.43
2019-02-02T17:48:00.953Z,15.63
2019-02-02T17:50:30.528Z,14.78
2019-02-02T17:52:59.283Z,14.50
2019-02-02T17:55:28.028Z,15.85
2019-02-02T17:57:56.812Z,16.05
2019-02-02T18:00:47.754Z,16.03
2019-02-02T18:03:16.593Z,16.45
2019-02-02T18:05:45.326Z,16.70
2019-02-02T18:08:15.732Z,19.17
2019-02-02T18:10:44.440Z,18.10
2019-02-02T18:13:13.612Z,19.27
2019-02-02T18:15:42.731Z,19.10
2019-02-02T18:18:11.646Z,19.27
2019-02-02T18:20:40.408Z,20.52
2019-02-02T18:23:09.149Z,21.65
2019-02-02T18:25:37.897Z,24.00
2019-02-02T18:28:06.648Z,24.50
2019-02-02T18:30:35.666Z,24.32
2019-02-02T18:33:05.012Z,24.80
2019-02-02T18:35:33.808Z,24.85
2019-02-02T18:38:02.544Z,25.55
2019-02-02T18:40:31.686Z,28.17
2019-02-02T18:43:00.484Z,33.67
2019-02-02T18:45:31.442Z,33.85
2019-02-02T18:48:00.158Z,35.00
2019-02-02T18:50:29.234Z,39.07
2019-02-02T18:52:59.730Z,40.00
2019-02-02T18:55:31.629Z,39.10
2019-02-02T18:58:00.510Z,37.08
2019-02-02T19:00:29.704Z,34.00
2019-02-02T19:02:58.498Z,32.28
2019-02-02T19:05:29.215Z,34.05
2019-02-02T19:07:58.080Z,34.15
2019-02-02T19:10:35.689Z,32.80
2019-02-02T19:13:05.824Z,34.23
2019-02-02T19:15:35.524Z,33.03
2019-02-02T19:18:05.181Z,33.02
2019-02-02T19:20:35.507Z,32.60
2019-02-02T19:23:04.872Z,33.45
2019-02-02T19:25:33.880Z,34.92
2019-02-02T19:28:02.875Z,34.40
2019-02-02T19:30:35.751Z,37.30
2019-02-02T19:33:05.776Z,36.25
2019-02-02T19:35:34.613Z,37.30
2019-02-02T19:38:03.809Z,36.23
2019-02-02T19:40:32.570Z,36.23
2019-02-02T19:43:01.333Z,36.42
2019-02-02T19:45:30.433Z,33.37
2019-02-02T19:47:59.195Z,34.63
2019-02-02T19:50:29.229Z,33.42
2019-02-02T19:52:59.746Z,34.40
2019-02-02T19:55:28.759Z,35.95
2019-02-02T19:57:57.531Z,34.30
2019-02-02T20:00:31.626Z,35.40
2019-02-02T20:03:00.762Z,32.23
2019-02-02T20:05:29.526Z,33.25
2019-02-02T20:07:58.367Z,33.10
2019-02-02T20:10:27.455Z,31.50
2019-02-02T20:12:56.463Z,29.27
2019-02-02T20:15:28.694Z,30.32
2019-02-02T20:18:08.910Z,30.45
2019-02-02T20:20:29.320Z,30.52
2019-02-02T20:22:58.207Z,32.15
2019-02-02T20:25:27.491Z,32.55
2019-02-02T20:28:01.465Z,34.40
2019-02-02T20:30:32.157Z,34.50
2019-02-02T20:33:01.091Z,36.08
2019-02-02T20:35:40.300Z,36.65
2019-02-02T20:38:02.210Z,34.40
2019-02-02T20:40:31.358Z,35.90
2019-02-02T20:43:00.230Z,39.18
2019-02-02T20:45:32.891Z,38.30
2019-02-02T20:48:01.736Z,37.48
2019-02-02T20:50:30.930Z,36.28
2019-02-02T20:53:01.545Z,36.75
2019-02-02T20:55:35.588Z,37.90
2019-02-02T20:58:07.242Z,38.53
2019-02-02T21:00:36.431Z,35.48
2019-02-02T21:03:05.686Z,36.30
2019-02-02T21:05:35.212Z,39.35
2019-02-02T21:08:04.926Z,40.85
2019-02-02T21:10:34.013Z,36.98
2019-02-02T21:13:06.990Z,41.65
2019-02-02T21:15:36.469Z,40.83
2019-02-02T21:18:05.513Z,42.25
2019-02-02T21:20:35.616Z,41.73
2019-02-02T21:23:04.621Z,44.75
2019-02-02T21:25:35.378Z,44.50
2019-02-02T21:28:04.929Z,41.48
2019-02-02T21:30:35.671Z,43.33
2019-02-02T21:33:06.975Z,42.95
2019-02-02T21:35:36.210Z,44.27
2019-02-02T21:38:06.060Z,47.35
2019-02-02T21:40:35.862Z,49.00
2019-02-02T21:43:05.452Z,52.65
2019-02-02T21:45:34.629Z,51.77
2019-02-02T21:48:06.355Z,53.28
2019-02-02T21:50:35.905Z,53.73
2019-02-02T21:53:05.144Z,56.68
2019-02-02T21:55:33.913Z,55.73
2019-02-02T21:58:02.653Z,54.67
2019-02-02T22:00:39.753Z,58.70
2019-02-02T22:03:08.490Z,59.03
2019-02-02T22:05:37.269Z,58.30
2019-02-02T22:08:06.909Z,59.00
2019-02-02T22:10:35.740Z,57.33
2019-02-02T22:13:04.880Z,61.50
2019-02-02T22:15:33.705Z,62.33
2019-02-02T22:18:02.450Z,64.07
2019-02-02T22:20:31.235Z,58.93
2019-02-02T22:23:00.005Z,66.40
2019-02-02T22:25:33.118Z,64.23
2019-02-02T22:28:01.888Z,66.60
2019-02-02T22:30:37.882Z,63.25
2019-02-02T22:33:06.873Z,62.43
2019-02-02T22:35:35.604Z,61.25
2019-02-02T22:38:04.573Z,63.40
2019-02-02T22:40:33.305Z,63.10
2019-02-02T22:43:02.066Z,65.37
2019-02-02T22:45:30.809Z,64.65
2019-02-02T22:48:00.330Z,63.05
2019-02-02T22:50:29.887Z,68.22
2019-02-02T22:52:59.087Z,70.75
2019-02-02T22:55:28.289Z,67.47
2019-02-02T22:57:58.002Z,74.95
2019-02-02T23:00:43.858Z,76.35
2019-02-02T23:03:19.125Z,79.12
2019-02-02T23:05:52.542Z,85.75
2019-02-02T23:08:27.580Z,86.92
2019-02-02T23:11:23.990Z,92.05
2019-02-02T23:14:14.075Z,87.00
2019-02-02T23:16:43.664Z,86.28
2019-02-02T23:19:13.306Z,90.15
2019-02-02T23:21:42.594Z,98.70
2019-02-02T23:24:12.610Z,108.67
2019-02-02T23:26:42.319Z,100.18
2019-02-02T23:29:11.597Z,108.83
2019-02-02T23:31:40.329Z,112.05
2019-02-02T23:34:09.093Z,113.55
2019-02-02T23:40:09.710Z,106.63
2019-02-02T23:42:38.481Z,102.42
2019-02-02T23:45:09.126Z,102.97
2019-02-02T23:47:38.776Z,101.03
2019-02-02T23:50:10.611Z,93.80
2019-02-02T23:52:40.441Z,101.65
2019-02-02T23:55:10.506Z,89.07
2019-02-02T23:57:39.957Z,90.40
